Woodbury, Indiana
Current Conditions -  °F | °C
As of 9:54 AM on Wednesday 22 Oct 2014 (Local Time) from KMQJ Reporting Station
Broken Clouds Broken Clouds  
Wind Chill: 37°   Ceiling: 2400
Heat Index: 43°   Visibility: 10mi
Dew Point: 37°   Wind: 9mph
Humidity: 81%   Direction: 40°NE
Pressure: 30.32"   Gusts: NA
Location:  39.9249°N, 85.9217°W
Report Text: KMQJ 221354Z AUTO 04008KT 10SM BKN024 06/03 A3032 RMK AO1
Loading
Personal Weather Stations






























Interactive Weather Map
Tropical Storm Tracking
New forecast layout! Learn more

10-Day Weather Forecast

Advertisements
Track Severe Weather on mobile